地図

経路データ

SID SEASON NUMBER BASIN SUBBASIN NAME ISO_TIME NATURE LAT LON WMO_WIND WMO_PRES WMO_AGENCY TRACK_TYPE DIST2LAND LANDFALL IFLAG USA_AGENCY USA_ATCF_ID USA_LAT USA_LON USA_RECORD USA_STATUS USA_WIND USA_PRES USA_SSHS USA_R34_NE USA_R34_SE USA_R34_SW USA_R34_NW USA_R50_NE USA_R50_SE USA_R50_SW USA_R50_NW USA_R64_NE USA_R64_SE USA_R64_SW USA_R64_NW USA_POCI USA_ROCI USA_RMW USA_EYE TOKYO_LAT TOKYO_LON TOKYO_GRADE TOKYO_WIND TOKYO_PRES TOKYO_R50_DIR TOKYO_R50_LONG TOKYO_R50_SHORT TOKYO_R30_DIR TOKYO_R30_LONG TOKYO_R30_SHORT TOKYO_LAND CMA_LAT CMA_LON CMA_CAT CMA_WIND CMA_PRES HKO_LAT HKO_LON HKO_CAT HKO_WIND HKO_PRES NEWDELHI_LAT NEWDELHI_LON NEWDELHI_GRADE NEWDELHI_WIND NEWDELHI_PRES NEWDELHI_CI NEWDELHI_DP NEWDELHI_POCI REUNION_LAT REUNION_LON REUNION_TYPE REUNION_WIND REUNION_PRES REUNION_TNUM REUNION_CI REUNION_RMW REUNION_R34_NE REUNION_R34_SE REUNION_R34_SW REUNION_R34_NW REUNION_R50_NE REUNION_R50_SE REUNION_R50_SW REUNION_R50_NW REUNION_R64_NE REUNION_R64_SE REUNION_R64_SW REUNION_R64_NW BOM_LAT BOM_LON BOM_TYPE BOM_WIND BOM_PRES BOM_TNUM BOM_CI BOM_RMW BOM_R34_NE BOM_R34_SE BOM_R34_SW BOM_R34_NW BOM_R50_NE BOM_R50_SE BOM_R50_SW BOM_R50_NW BOM_R64_NE BOM_R64_SE BOM_R64_SW BOM_R64_NW BOM_ROCI BOM_POCI BOM_EYE BOM_POS_METHOD BOM_PRES_METHOD NADI_LAT NADI_LON NADI_CAT NADI_WIND NADI_PRES WELLINGTON_LAT WELLINGTON_LON WELLINGTON_WIND WELLINGTON_PRES DS824_LAT DS824_LON DS824_STAGE DS824_WIND DS824_PRES TD9636_LAT TD9636_LON TD9636_STAGE TD9636_WIND TD9636_PRES TD9635_LAT TD9635_LON TD9635_WIND TD9635_PRES TD9635_ROCI NEUMANN_LAT NEUMANN_LON NEUMANN_CLASS NEUMANN_WIND NEUMANN_PRES MLC_LAT MLC_LON MLC_CLASS MLC_WIND MLC_PRES USA_GUST BOM_GUST BOM_GUST_PER REUNION_GUST REUNION_GUST_PER USA_SEAHGT USA_SEARAD_NE USA_SEARAD_SE USA_SEARAD_SW USA_SEARAD_NW STORM_SPEED STORM_DIR
1922021S16060 1922 7 SI MM NOT_NAMED 1922-01-21 06:00:00 NR -15.8000 60.4000 reunion main 559 549 _____O____O___ -1 -15.4000 60.1000 99 9.90000 -16.2000 60.7000 7 3 151
1922021S16060 1922 7 SI MM NOT_NAMED 1922-01-21 09:00:00 NR -15.9291 60.4713 main 555 536 _____P____P___ -1 -15.5035 60.1583 99 -16.3547 60.7842 7 3 152
1922021S16060 1922 7 SI MM NOT_NAMED 1922-01-21 12:00:00 NR -16.0577 60.5410 main 536 533 _____P____P___ -1 -15.6078 60.2171 99 -16.5076 60.8648 7 3 153
1922021S16060 1922 7 SI MM NOT_NAMED 1922-01-21 15:00:00 NR -16.1852 60.6074 main 533 524 _____P____P___ -1 -15.7139 60.2767 99 -16.6566 60.9380 7 3 154
1922021S16060 1922 7 SI MM NOT_NAMED 1922-01-21 18:00:00 NR -16.3113 60.6687 main 530 521 _____P____O___ -1 -15.8225 60.3375 99 -16.8000 61.0000 7 3 156
1922021S16060 1922 7 SI MM NOT_NAMED 1922-01-21 21:00:00 NR -16.4354 60.7245 main 521 510 _____P____P___ -1 -15.9346 60.3998 99 -16.9362 61.0491 7 3 157
1922021S16060 1922 7 SI MM NOT_NAMED 1922-01-22 00:00:00 NR -16.5579 60.7783 main 510 501 _____P____P___ -1 -16.0509 60.4641 99 -17.0649 61.0926 7 3 157
1922021S16060 1922 7 SI MM NOT_NAMED 1922-01-22 03:00:00 NR -16.6793 60.8352 main 501 500 _____P____P___ -1 -16.1725 60.5307 99 -17.1862 61.1398 7 3 154
1922021S16060 1922 7 SI MM NOT_NAMED 1922-01-22 06:00:00 NR -16.8000 60.9000 reunion main 500 491 _____O____O___ -1 -16.3000 60.6000 99 9.90000 -17.3000 61.2000 7 3 150
1922021S16060 1922 7 SI MM NOT_NAMED 1922-01-22 09:00:00 NR -16.9206 60.9850 main 499 491 _____P____P___ -1 -16.4339 60.6722 99 -17.4072 61.2978 7 3 145
1922021S16060 1922 7 SI MM NOT_NAMED 1922-01-22 12:00:00 NR -17.0402 61.0771 main 498 490 _____P____P___ -1 -16.5728 60.7468 99 -17.5076 61.4074 7 3 144
1922021S16060 1922 7 SI MM NOT_NAMED 1922-01-22 15:00:00 NR -17.1594 61.1682 main 491 483 _____P____P___ -1 -16.7147 60.8229 99 -17.6041 61.5134 7 3 146
1922021S16060 1922 7 SI MM NOT_NAMED 1922-01-22 18:00:00 NR -17.2788 61.2499 main 483 483 _____P____O___ -1 -16.8575 60.8999 99 -17.7000 61.6000 7 3 151
1922021S16060 1922 7 SI MM NOT_NAMED 1922-01-22 21:00:00 NR -17.4017 61.3057 main 484 477 _____P____P___ -1 -16.9994 60.9768 99 -17.8040 61.6345 7 3 159
1922021S16060 1922 7 SI MM NOT_NAMED 1922-01-23 00:00:00 NR -17.5229 61.3516 main 486 479 _____P____P___ -1 -17.1385 61.0530 99 -17.9074 61.6501 7 3 160
1922021S16060 1922 7 SI MM NOT_NAMED 1922-01-23 03:00:00 NR -17.6399 61.3967 main 479 472 _____P____P___ -1 -17.2726 61.1277 99 -18.0071 61.6657 7 2 157
1922021S16060 1922 7 SI MM NOT_NAMED 1922-01-23 06:00:00 NR -17.7500 61.4500 reunion main 481 475 _____O____O___ -1 -17.4000 61.2000 99 9.90000 -18.1000 61.7000 7 2 151
1922021S16060 1922 7 SI MM NOT_NAMED 1922-01-23 09:00:00 NR -17.8470 61.5239 main 475 469 _____P____P___ -1 -17.5158 61.2654 99 -18.1782 61.7825 7 2 141
1922021S16060 1922 7 SI MM NOT_NAMED 1922-01-23 12:00:00 NR -17.9378 61.6067 main 478 472 _____P____P___ -1 -17.6255 61.3283 99 -18.2501 61.8850 7 2 139
1922021S16060 1922 7 SI MM NOT_NAMED 1922-01-23 15:00:00 NR -18.0259 61.6924 main 481 476 _____P____P___ -1 -17.7300 61.3897 99 -18.3219 61.9950 7 2 138
1922021S16060 1922 7 SI MM NOT_NAMED 1922-01-23 18:00:00 NR -18.1149 61.7751 main 485 480 _____P____O___ -1 -17.8299 61.4503 99 -18.4000 62.1000 7 2 141
1922021S16060 1922 7 SI MM NOT_NAMED 1922-01-23 21:00:00 NR -18.2033 61.8405 main 480 480 _____P____P___ -1 -17.9261 61.5108 99 -18.4806 62.1701 7 2 145
1922021S16060 1922 7 SI MM NOT_NAMED 1922-01-24 00:00:00 NR -18.2946 61.9036 main 484 479 _____P____P___ -1 -18.0193 61.5721 99 -18.5699 62.2352 7 2 146
1922021S16060 1922 7 SI MM NOT_NAMED 1922-01-24 03:00:00 NR -18.3923 61.9713 main 489 484 _____P____P___ -1 -18.1103 61.6349 99 -18.6743 62.3077 7 2 146
1922021S16060 1922 7 SI MM NOT_NAMED 1922-01-24 06:00:00 NR -18.5000 62.0500 reunion main 493 489 _____O____O___ -1 -18.2000 61.7000 99 9.90000 -18.8000 62.4000 7 3 144
1922021S16060 1922 7 SI MM NOT_NAMED 1922-01-24 09:00:00 NR -18.6311 62.1555 main 498 494 _____P____P___ -1 -18.2883 61.7666 99 -18.9739 62.5444 7 3 142
1922021S16060 1922 7 SI MM NOT_NAMED 1922-01-24 12:00:00 NR -18.7696 62.2710 main 500 496 _____P____P___ -1 -18.3740 61.8349 99 -19.1652 62.7071 7 4 142
1922021S16060 1922 7 SI MM NOT_NAMED 1922-01-24 15:00:00 NR -18.9036 62.3857 main 506 503 _____P____P___ -1 -18.4583 61.9052 99 -19.3489 62.8663 7 3 141
1922021S16060 1922 7 SI MM NOT_NAMED 1922-01-24 18:00:00 NR -19.0212 62.4889 main 513 509 _____P____O___ -1 -18.5424 61.9778 99 -19.5000 63.0000 7 3 140
1922021S16060 1922 7 SI MM NOT_NAMED 1922-01-24 21:00:00 NR -19.1067 62.5661 main 520 517 _____P____P___ -1 -18.6274 62.0532 99 -19.5859 63.0789 7 2 139
1922021S16060 1922 7 SI MM NOT_NAMED 1922-01-25 00:00:00 NR -19.1760 62.6310 main 517 517 _____P____P___ -1 -18.7146 62.1318 99 -19.6374 63.1302 7 2 138
1922021S16060 1922 7 SI MM NOT_NAMED 1922-01-25 03:00:00 NR -19.2377 62.6902 main 527 524 _____P____P___ -1 -18.8051 62.2139 99 -19.6703 63.1664 7 2 138
1922021S16060 1922 7 SI MM NOT_NAMED 1922-01-25 06:00:00 NR -19.3000 62.7500 reunion main 534 524 _____O____O___ -1 -18.9000 62.3000 99 9.90000 -19.7000 63.2000 7 2 138
1922021S16060 1922 7 SI MM NOT_NAMED 1922-01-25 09:00:00 NR -19.3784 62.8232 main 532 532 _____P____P___ -1 -19.0109 62.3963 99 -19.7459 63.2500 7 2 139
1922021S16060 1922 7 SI MM NOT_NAMED 1922-01-25 12:00:00 NR -19.4597 62.8988 main 540 540 _____P____P___ -1 -19.1270 62.4976 99 -19.7925 63.3000 7 2 139
1922021S16060 1922 7 SI MM NOT_NAMED 1922-01-25 15:00:00 NR -19.5443 62.9759 main 550 549 _____P____P___ -1 -19.2458 62.6018 99 -19.8428 63.3500 7 2 140
1922021S16060 1922 7 SI MM NOT_NAMED 1922-01-25 18:00:00 NR -19.6326 63.0536 main 559 557 _____P____O___ -1 -19.3651 62.7071 99 -19.9000 63.4000 7 2 142
1922021S16060 1922 7 SI MM NOT_NAMED 1922-01-25 21:00:00 NR -19.7252 63.1267 main 557 556 _____P____P___ -1 -19.4825 62.8116 99 -19.9678 63.4419 7 2 144
1922021S16060 1922 7 SI MM NOT_NAMED 1922-01-26 00:00:00 NR -19.8191 63.1991 main 566 565 _____P____P___ -1 -19.5957 62.9132 99 -20.0425 63.4851 7 2 144
1922021S16060 1922 7 SI MM NOT_NAMED 1922-01-26 03:00:00 NR -19.9116 63.2728 main 575 575 _____P____P___ -1 -19.7023 63.0100 99 -20.1209 63.5357 7 2 142
1922021S16060 1922 7 SI MM NOT_NAMED 1922-01-26 06:00:00 NR -20.0000 63.3500 reunion main 585 575 _____O____O___ -1 -19.8000 63.1000 99 9.90000 -20.2000 63.6000 7 2 137
1922021S16060 1922 7 SI MM NOT_NAMED 1922-01-26 09:00:00 NR -20.0731 63.4313 main 584 584 _____P____P___ -1 -19.8753 63.1729 99 -20.2710 63.6897 7 2 133
1922021S16060 1922 7 SI MM NOT_NAMED 1922-01-26 12:00:00 NR -20.1420 63.5157 main 595 594 _____P____P___ -1 -19.9414 63.2389 99 -20.3425 63.7925 7 2 131
1922021S16060 1922 7 SI MM NOT_NAMED 1922-01-26 15:00:00 NR -20.2095 63.5995 main 605 604 _____P____P___ -1 -20.0012 63.3000 99 -20.4178 63.8991 7 2 132
1922021S16060 1922 7 SI MM NOT_NAMED 1922-01-26 18:00:00 NR -20.2786 63.6790 main 615 615 _____P____O___ -1 -20.0573 63.3581 99 -20.5000 64.0000 7 2 136
1922021S16060 1922 7 SI MM NOT_NAMED 1922-01-26 21:00:00 NR -20.3547 63.7487 main 615 615 _____P____P___ -1 -20.1125 63.4152 99 -20.5968 64.0822 7 2 141
1922021S16060 1922 7 SI MM NOT_NAMED 1922-01-27 00:00:00 NR -20.4347 63.8154 main 625 625 _____P____P___ -1 -20.1695 63.4732 99 -20.7000 64.1575 7 2 142
1922021S16060 1922 7 SI MM NOT_NAMED 1922-01-27 03:00:00 NR -20.5171 63.8816 main 636 636 _____P____P___ -1 -20.2311 63.5342 99 -20.8031 64.2291 7 2 143
1922021S16060 1922 7 SI MM NOT_NAMED 1922-01-27 06:00:00 NR -20.6000 63.9500 reunion main 646 646 _____O____O___ -1 -20.3000 63.6000 99 9.90000 -20.9000 64.3000 7 2 140
1922021S16060 1922 7 SI MM NOT_NAMED 1922-01-27 09:00:00 NR -20.6891 64.0324 main 647 647 _____P____P___ -1 -20.3919 63.6857 99 -20.9863 64.3791 7 2 139
1922021S16060 1922 7 SI MM NOT_NAMED 1922-01-27 12:00:00 NR -20.7779 64.1171 main 658 658 _____P____P___ -1 -20.4907 63.7766 99 -21.0650 64.4575 7 2 138
1922021S16060 1922 7 SI MM NOT_NAMED 1922-01-27 15:00:00 NR -20.8653 64.2013 main 669 669 _____P____P___ -1 -20.5943 63.8703 99 -21.1363 64.5322 7 2 138
1922021S16060 1922 7 SI MM NOT_NAMED 1922-01-27 18:00:00 NR -20.9501 64.2823 main 680 680 _____P____O___ -1 -20.7002 63.9646 99 -21.2000 64.6000 7 2 138
1922021S16060 1922 7 SI MM NOT_NAMED 1922-01-27 21:00:00 NR -21.0296 64.3571 main 691 691 _____P____P___ -1 -20.8060 64.0571 99 -21.2531 64.6572 7 2 139
1922021S16060 1922 7 SI MM NOT_NAMED 1922-01-28 00:00:00 NR -21.1047 64.4265 main 692 692 _____P____P___ -1 -20.9095 64.1454 99 -21.3000 64.7076 7 2 140
1922021S16060 1922 7 SI MM NOT_NAMED 1922-01-28 03:00:00 NR -21.1776 64.4906 main 703 703 _____P____P___ -1 -21.0083 64.2271 99 -21.3469 64.7541 7 2 143
1922021S16060 1922 7 SI MM NOT_NAMED 1922-01-28 06:00:00 NR -21.2500 64.5500 reunion main 714 714 _____O____O___ -1 -21.1000 64.3000 99 9.90000 -21.4000 64.8000 7 2 144
1922021S16060 1922 7 SI MM NOT_NAMED 1922-01-28 09:00:00 NR -21.3211 64.6012 main 715 715 _____P____P___ -1 -21.1744 64.3525 99 -21.4678 64.8500 7 2 148
1922021S16060 1922 7 SI MM NOT_NAMED 1922-01-28 12:00:00 NR -21.3924 64.6480 main 717 717 _____P____P___ -1 -21.2424 64.3960 99 -21.5425 64.9000 7 2 148
1922021S16060 1922 7 SI MM NOT_NAMED 1922-01-28 15:00:00 NR -21.4631 64.6914 main 729 729 _____P____P___ -1 -21.3053 64.4328 99 -21.6209 64.9500 7 2 149
1922021S16060 1922 7 SI MM NOT_NAMED 1922-01-28 18:00:00 NR -21.5324 64.7327 main 729 729 _____P____O___ -1 -21.3648 64.4654 99 -21.7000 65.0000 7 2 149
1922021S16060 1922 7 SI MM NOT_NAMED 1922-01-28 21:00:00 NR -21.5987 64.7731 main 741 741 _____P____P___ -1 -21.4225 64.4961 99 -21.7750 65.0500 7 2 150
1922021S16060 1922 7 SI MM NOT_NAMED 1922-01-29 00:00:00 NR -21.6649 64.8136 main 743 743 _____P____P___ -1 -21.4799 64.5272 99 -21.8500 65.1000 7 2 150
1922021S16060 1922 7 SI MM NOT_NAMED 1922-01-29 03:00:00 NR -21.7318 64.8555 main 753 753 _____P____P___ -1 -21.5385 64.5610 99 -21.9250 65.1500 7 2 149
1922021S16060 1922 7 SI MM NOT_NAMED 1922-01-29 06:00:00 NR -21.8000 64.9000 reunion main 755 755 _____O____O___ -1 -21.6000 64.6000 99 9.90000 -22.0000 65.2000 7 2 148
1922021S16060 1922 7 SI MM NOT_NAMED 1922-01-29 09:00:00 NR -21.8736 64.9525 main 767 767 _____P____P___ -1 -21.6723 64.6551 99 -22.0750 65.2500 7 2 147
1922021S16060 1922 7 SI MM NOT_NAMED 1922-01-29 12:00:00 NR -21.9485 65.0073 main 767 767 _____P____P___ -1 -21.7469 64.7146 99 -22.1500 65.3000 7 2 146
1922021S16060 1922 7 SI MM NOT_NAMED 1922-01-29 15:00:00 NR -22.0240 65.0637 main 780 780 _____P____P___ -1 -21.8231 64.7774 99 -22.2250 65.3500 7 2 145
1922021S16060 1922 7 SI MM NOT_NAMED 1922-01-29 18:00:00 NR -22.1000 65.1212 main 782 782 _____P____O___ -1 -21.9001 64.8424 99 -22.3000 65.4000 7 2 145
1922021S16060 1922 7 SI MM NOT_NAMED 1922-01-29 21:00:00 NR -22.1760 65.1771 main 795 795 _____P____P___ -1 -21.9770 64.9083 99 -22.3750 65.4460 7 2 145
1922021S16060 1922 7 SI MM NOT_NAMED 1922-01-30 00:00:00 NR -22.2516 65.2333 main 798 798 _____P____P___ -1 -22.0532 64.9740 99 -22.4500 65.4925 7 2 146
1922021S16060 1922 7 SI MM NOT_NAMED 1922-01-30 03:00:00 NR -22.3264 65.2906 main 808 808 _____P____P___ -1 -22.1278 65.0383 99 -22.5250 65.5428 7 2 145
1922021S16060 1922 7 SI MM NOT_NAMED 1922-01-30 06:00:00 NR -22.4000 65.3500 reunion main 821 811 _____O____O___ -1 -22.2000 65.1000 99 9.90000 -22.6000 65.6000 7 2 142
1922021S16060 1922 7 SI MM NOT_NAMED 1922-01-30 09:00:00 NR -22.4701 65.4114 main 824 824 _____P____P___ -1 -22.2652 65.1509 99 -22.6750 65.6719 7 2 142
1922021S16060 1922 7 SI MM NOT_NAMED 1922-01-30 12:00:00 NR -22.5390 65.4746 main 833 833 _____P____P___ -1 -22.3280 65.1993 99 -22.7500 65.7500 7 2 139
1922021S16060 1922 7 SI MM NOT_NAMED 1922-01-30 15:00:00 NR -22.6072 65.5371 main 837 837 _____P____P___ -1 -22.3893 65.2461 99 -22.8250 65.8281 7 2 140
1922021S16060 1922 7 SI MM NOT_NAMED 1922-01-30 18:00:00 NR -22.6749 65.5964 main 850 850 _____P____O___ -1 -22.4499 65.2928 99 -22.9000 65.9000 7 2 143
1922021S16060 1922 7 SI MM NOT_NAMED 1922-01-30 21:00:00 NR -22.7407 65.6467 main 850 850 _____P____P___ -1 -22.5104 65.3403 99 -22.9709 65.9532 7 2 147
1922021S16060 1922 7 SI MM NOT_NAMED 1922-01-31 00:00:00 NR -22.8071 65.6950 main 863 863 _____P____P___ -1 -22.5718 65.3899 99 -23.0425 66.0001 7 2 146
1922021S16060 1922 7 SI MM NOT_NAMED 1922-01-31 03:00:00 NR -22.8762 65.7448 main 866 866 _____P____P___ -1 -22.6347 65.4427 99 -23.1178 66.0470 7 2 146
1922021S16060 1922 7 SI MM NOT_NAMED 1922-01-31 06:00:00 NR -22.9500 65.8000 reunion main 876 879 _____O____O___ -1 -22.7000 65.5000 99 9.90000 -23.2000 66.1000 7 2 145
1922021S16060 1922 7 SI MM NOT_NAMED 1922-01-31 09:00:00 NR -23.0317 65.8647 main 889 889 _____P____P___ -1 -22.7665 65.5657 99 -23.2969 66.1637 7 2 143
1922021S16060 1922 7 SI MM NOT_NAMED 1922-01-31 12:00:00 NR -23.1173 65.9353 main 893 893 _____P____P___ -1 -22.8347 65.6357 99 -23.4000 66.2350 7 2 141
1922021S16060 1922 7 SI MM NOT_NAMED 1922-01-31 15:00:00 NR -23.2040 66.0114 main 906 906 _____P____P___ -1 -22.9049 65.7091 99 -23.5031 66.3138 7 2 140
1922021S16060 1922 7 SI MM NOT_NAMED 1922-01-31 18:00:00 NR -23.2888 66.0926 main 919 919 _____P____O___ -1 -22.9775 65.7851 99 -23.6000 66.4000 7 2 136
1922021S16060 1922 7 SI MM NOT_NAMED 1922-01-31 21:00:00 NR -23.3655 66.1800 main 933 933 _____P____P___ -1 -23.0529 65.8630 99 -23.6781 66.4969 7 2 133
1922021S16060 1922 7 SI MM NOT_NAMED 1922-02-01 00:00:00 NR -23.4408 66.2710 main 942 942 _____P____P___ -1 -23.1316 65.9420 99 -23.7500 66.6001 7 2 132
1922021S16060 1922 7 SI MM NOT_NAMED 1922-02-01 03:00:00 NR -23.5178 66.3622 main 956 956 _____P____P___ -1 -23.2138 66.0212 99 -23.8219 66.7032 7 2 134
1922021S16060 1922 7 SI MM NOT_NAMED 1922-02-01 06:00:00 NR -23.6000 66.4500 reunion main 969 960 _____O____O___ -1 -23.3000 66.1000 99 9.90000 -23.9000 66.8000 7 2 140
1922021S16060 1922 7 SI MM NOT_NAMED 1922-02-01 09:00:00 NR -23.6967 66.5277 main 973 973 _____P____P___ -1 -23.3926 66.1731 99 -24.0009 66.8822 7 2 146
1922021S16060 1922 7 SI MM NOT_NAMED 1922-02-01 12:00:00 NR -23.7985 66.6017 main 987 987 _____P____P___ -1 -23.4896 66.2460 99 -24.1075 66.9575 7 2 148
1922021S16060 1922 7 SI MM NOT_NAMED 1922-02-01 15:00:00 NR -23.9001 66.6740 main 1000 1000 _____P____P___ -1 -23.5899 66.3190 99 -24.2103 67.0291 7 2 146
1922021S16060 1922 7 SI MM NOT_NAMED 1922-02-01 18:00:00 NR -23.9962 66.7463 main 1004 1004 _____P____O___ -1 -23.6924 66.3926 99 -24.3000 67.1000 7 2 144
1922021S16060 1922 7 SI MM NOT_NAMED 1922-02-01 21:00:00 NR -24.0780 66.8170 main 1018 1018 _____P____P___ -1 -23.7958 66.4671 99 -24.3603 67.1670 7 2 140
1922021S16060 1922 7 SI MM NOT_NAMED 1922-02-02 00:00:00 NR -24.1532 66.8890 main 1031 1031 _____P____P___ -1 -23.8990 66.5429 99 -24.4074 67.2351 7 2 137
1922021S16060 1922 7 SI MM NOT_NAMED 1922-02-02 03:00:00 NR -24.2258 66.9656 main 1041 1041 _____P____P___ -1 -24.0008 66.6204 99 -24.4509 67.3107 7 2 135
1922021S16060 1922 7 SI MM NOT_NAMED 1922-02-02 06:00:00 NR -24.3000 67.0500 reunion main 1054 1054 _____O____O___ -1 -24.1000 66.7000 99 9.90000 -24.5000 67.4000 7 2 133
1922021S16060 1922 7 SI MM NOT_NAMED 1922-02-02 09:00:00 NR -24.3829 67.1508 main 1068 1068 _____P____P___ -1 -24.1979 66.7829 99 -24.5679 67.5187 7 3 132
1922021S16060 1922 7 SI MM NOT_NAMED 1922-02-02 12:00:00 NR -24.4685 67.2589 main 1082 1082 _____P____P___ -1 -24.2943 66.8678 99 -24.6426 67.6499 7 3 131
1922021S16060 1922 7 SI MM NOT_NAMED 1922-02-02 15:00:00 NR -24.5548 67.3678 main 1095 1095 _____P____P___ -1 -24.3886 66.9545 99 -24.7210 67.7812 7 3 131
1922021S16060 1922 7 SI MM NOT_NAMED 1922-02-02 18:00:00 NR -24.6400 67.4712 main 1105 1105 _____P____O___ -1 -24.4800 67.0425 99 -24.8000 67.9000 7 2 133
1922021S16060 1922 7 SI MM NOT_NAMED 1922-02-02 21:00:00 NR -24.7223 67.5642 main 1118 1118 _____P____P___ -1 -24.5675 67.1314 99 -24.8771 67.9969 7 2 142
1922021S16060 1922 7 SI MM NOT_NAMED 1922-02-03 00:00:00 NR -24.7800 67.5870 main 1123 1123 _____P____P___ -1 -24.6506 67.2209 99 -24.9524 68.0750 7 1 0
1922021S16060 1922 7 SI MM NOT_NAMED 1922-02-03 03:00:00 NR -24.8277 67.5873 main 1123 1123 _____P____P___ -1 -24.7283 67.3106 99 -25.0265 68.1406 7 1 0
1922021S16060 1922 7 SI MM NOT_NAMED 1922-02-03 06:00:00 NR -24.8600 67.5600 reunion main 1127 1118 _____O____O___ -1 -24.8000 67.4000 99 9.90000 -25.1000 68.2000 7 1 248
1922021S16060 1922 7 SI MM NOT_NAMED 1922-02-03 09:00:00 NR -24.8639 67.4876 main 1118 1118 _____P________ -1 -24.8639 67.4876 99 7 1 0
1922021S16060 1922 7 SI MM NOT_NAMED 1922-02-03 12:00:00 NR -24.9215 67.5752 main 1127 1127 _____P________ -1 -24.9215 67.5752 99 7 2 125
1922021S16060 1922 7 SI MM NOT_NAMED 1922-02-03 15:00:00 NR -24.9739 67.6628 main 1141 1141 _____P________ -1 -24.9739 67.6628 99 7 2 122
1922021S16060 1922 7 SI MM NOT_NAMED 1922-02-03 18:00:00 NR -25.0224 67.7503 main 1150 1150 _____P________ -1 -25.0224 67.7503 99 2 120
1922021S16060 1922 7 SI MM NOT_NAMED 1922-02-03 21:00:00 NR -25.0681 67.8378 main 1155 1155 _____P________ -1 -25.0681 67.8378 99 2 120
1922021S16060 1922 7 SI MM NOT_NAMED 1922-02-04 00:00:00 NR -25.1121 67.9252 main 1164 1164 _____P________ -1 -25.1121 67.9252 99 2 119
1922021S16060 1922 7 SI MM NOT_NAMED 1922-02-04 03:00:00 NR -25.1557 68.0126 main 1177 1177 _____P________ -1 -25.1557 68.0126 99 2 119
1922021S16060 1922 7 SI MM NOT_NAMED 1922-02-04 06:00:00 NR -25.2000 68.1000 reunion main 1187 1187 _____O________ -1 -25.2000 68.1000 99 9.90000 2 120
1922021S16060 1922 7 SI MM NOT_NAMED 1922-02-04 09:00:00 NR -25.2459 68.1874 main 1196 1196 _____P________ -1 -25.2459 68.1874 99 2 120
1922021S16060 1922 7 SI MM NOT_NAMED 1922-02-04 12:00:00 NR -25.2935 68.2748 main 1210 1210 _____P________ -1 -25.2935 68.2748 99 2 121
1922021S16060 1922 7 SI MM NOT_NAMED 1922-02-04 15:00:00 NR -25.3425 68.3622 main 1219 1219 _____P________ -1 -25.3425 68.3622 99 2 122
1922021S16060 1922 7 SI MM NOT_NAMED 1922-02-04 18:00:00 NR -25.3927 68.4497 main 1223 1223 _____P________ -1 -25.3927 68.4497 99 2 122
1922021S16060 1922 7 SI MM NOT_NAMED 1922-02-04 21:00:00 NR -25.4437 68.5372 main 1232 1232 _____P________ -1 -25.4437 68.5372 99 2 123
1922021S16060 1922 7 SI MM NOT_NAMED 1922-02-05 00:00:00 NR -25.4955 68.6247 main 1246 1246 _____P________ -1 -25.4955 68.6247 99 2 123
1922021S16060 1922 7 SI MM NOT_NAMED 1922-02-05 03:00:00 NR -25.5476 68.7123 main 1255 1255 _____P________ -1 -25.5476 68.7123 99 2 123
1922021S16060 1922 7 SI MM NOT_NAMED 1922-02-05 06:00:00 NR -25.6000 68.8000 reunion main 1269 _____O________ -1 -25.6000 68.8000 99 9.90000 2 123

IBTrACS Databaseについて

本データベースは、米国NOAAが公開する1842年以降の世界の熱帯低気圧のベストトラックデータアーカイブInternational Best Track Archive for Climate Stewardship (IBTrACS)を、ウェブで閲覧しやすい形式に変換したものです。

最終更新日:2021-11-26